sensor_id;sensor_type;location;lat;lon;timestamp;pressure;altitude;pressure_sealevel;temperature;humidity
49583;BME280;36329;48.816;44.624;2023-02-26T00:01:32;101064;;;1.1;100
49583;BME280;36329;48.816;44.624;2023-02-26T00:04:35;101061;;;1.2;100
49583;BME280;36329;48.816;44.624;2023-02-26T00:07:47;101058;;;1.2;100
49583;BME280;36329;48.816;44.624;2023-02-26T00:10:50;101053;;;1.1;100
49583;BME280;36329;48.816;44.624;2023-02-26T00:13:53;101053;;;1.1;100
49583;BME280;36329;48.816;44.624;2023-02-26T00:17:05;101036;;;1;100
49583;BME280;36329;48.816;44.624;2023-02-26T00:20:11;101040;;;1;100
49583;BME280;36329;48.816;44.624;2023-02-26T00:23:14;101041;;;0.9;100
49583;BME280;36329;48.816;44.624;2023-02-26T00:26:29;101048;;;0.9;100
49583;BME280;36329;48.816;44.624;2023-02-26T00:29:32;101046;;;0.9;100
49583;BME280;36329;48.816;44.624;2023-02-26T00:32:35;101050;;;0.8;100
49583;BME280;36329;48.816;44.624;2023-02-26T00:35:37;101072;;;0.8;100
49583;BME280;36329;48.816;44.624;2023-02-26T00:38:42;101050;;;0.8;100
49583;BME280;36329;48.816;44.624;2023-02-26T00:41:46;101056;;;0.8;100
49583;BME280;36329;48.816;44.624;2023-02-26T00:44:49;101054;;;0.8;100
49583;BME280;36329;48.816;44.624;2023-02-26T00:47:55;101064;;;0.8;100
49583;BME280;36329;48.816;44.624;2023-02-26T00:51:20;101054;;;0.7;100
49583;BME280;36329;48.816;44.624;2023-02-26T00:54:26;101052;;;0.8;100
49583;BME280;36329;48.816;44.624;2023-02-26T00:57:29;101073;;;0.9;100
49583;BME280;36329;48.816;44.624;2023-02-26T01:00:31;101079;;;0.9;100
49583;BME280;36329;48.816;44.624;2023-02-26T01:03:34;101065;;;0.9;100
49583;BME280;36329;48.816;44.624;2023-02-26T01:06:42;101060;;;0.9;100
49583;BME280;36329;48.816;44.624;2023-02-26T01:09:45;101046;;;1;100
49583;BME280;36329;48.816;44.624;2023-02-26T01:12:47;101066;;;1;100
49583;BME280;36329;48.816;44.624;2023-02-26T01:16:00;101060;;;1;100
49583;BME280;36329;48.816;44.624;2023-02-26T01:19:14;101084;;;0.8;100
49583;BME280;36329;48.816;44.624;2023-02-26T01:22:21;101080;;;0.8;100
49583;BME280;36329;48.816;44.624;2023-02-26T01:25:26;101099;;;0.8;100
49583;BME280;36329;48.816;44.624;2023-02-26T01:28:30;101096;;;0.9;100
49583;BME280;36329;48.816;44.624;2023-02-26T01:31:37;101074;;;0.9;100
49583;BME280;36329;48.816;44.624;2023-02-26T01:34:52;101057;;;0.9;100
49583;BME280;36329;48.816;44.624;2023-02-26T01:38:00;101070;;;0.9;100
49583;BME280;36329;48.816;44.624;2023-02-26T01:41:24;101075;;;0.9;100
49583;BME280;36329;48.816;44.624;2023-02-26T01:44:31;101074;;;0.9;100
49583;BME280;36329;48.816;44.624;2023-02-26T01:47:40;101082;;;0.8;100
49583;BME280;36329;48.816;44.624;2023-02-26T01:50:46;101086;;;0.8;100
49583;BME280;36329;48.816;44.624;2023-02-26T01:53:55;101083;;;0.8;100
49583;BME280;36329;48.816;44.624;2023-02-26T01:57:01;101093;;;0.9;100
49583;BME280;36329;48.816;44.624;2023-02-26T02:00:06;101095;;;0.9;100
49583;BME280;36329;48.816;44.624;2023-02-26T02:03:09;101082;;;0.9;100
49583;BME280;36329;48.816;44.624;2023-02-26T02:06:17;101085;;;0.9;100
49583;BME280;36329;48.816;44.624;2023-02-26T02:09:21;101082;;;1;100
49583;BME280;36329;48.816;44.624;2023-02-26T02:12:30;101089;;;0.9;100
49583;BME280;36329;48.816;44.624;2023-02-26T02:15:41;101087;;;1;100
49583;BME280;36329;48.816;44.624;2023-02-26T02:18:52;101094;;;0.9;100
49583;BME280;36329;48.816;44.624;2023-02-26T02:22:10;101083;;;0.9;100
49583;BME280;36329;48.816;44.624;2023-02-26T02:25:29;101090;;;0.9;100
49583;BME280;36329;48.816;44.624;2023-02-26T02:28:38;101091;;;1;100
49583;BME280;36329;48.816;44.624;2023-02-26T02:31:45;101093;;;1;100
49583;BME280;36329;48.816;44.624;2023-02-26T02:35:08;101088;;;0.9;100
49583;BME280;36329;48.816;44.624;2023-02-26T02:38:17;101104;;;1;100
49583;BME280;36329;48.816;44.624;2023-02-26T02:41:24;101096;;;1;100
49583;BME280;36329;48.816;44.624;2023-02-26T02:44:31;101101;;;1;100
49583;BME280;36329;48.816;44.624;2023-02-26T02:47:40;101114;;;1;100
49583;BME280;36329;48.816;44.624;2023-02-26T02:50:45;101094;;;1;100
49583;BME280;36329;48.816;44.624;2023-02-26T02:53:53;101098;;;1;100
49583;BME280;36329;48.816;44.624;2023-02-26T02:57:01;101116;;;1;100
49583;BME280;36329;48.816;44.624;2023-02-26T03:00:08;101115;;;1;100
49583;BME280;36329;48.816;44.624;2023-02-26T03:03:19;101101;;;1;100
49583;BME280;36329;48.816;44.624;2023-02-26T03:06:25;101114;;;1;100
49583;BME280;36329;48.816;44.624;2023-02-26T03:09:28;101114;;;1;100
49583;BME280;36329;48.816;44.624;2023-02-26T03:12:35;101123;;;1;100
49583;BME280;36329;48.816;44.624;2023-02-26T03:15:45;101112;;;0.9;100
49583;BME280;36329;48.816;44.624;2023-02-26T03:18:59;101119;;;1;100
49583;BME280;36329;48.816;44.624;2023-02-26T03:22:14;101107;;;1;100
49583;BME280;36329;48.816;44.624;2023-02-26T03:25:23;101108;;;1.1;100
49583;BME280;36329;48.816;44.624;2023-02-26T03:28:31;101116;;;1.1;100
49583;BME280;36329;48.816;44.624;2023-02-26T03:31:50;101125;;;1.1;100
49583;BME280;36329;48.816;44.624;2023-02-26T03:34:58;101096;;;1.2;100
49583;BME280;36329;48.816;44.624;2023-02-26T03:38:05;101091;;;1.3;100
49583;BME280;36329;48.816;44.624;2023-02-26T03:41:12;101098;;;1.4;100
49583;BME280;36329;48.816;44.624;2023-02-26T03:44:19;101113;;;1.4;100
49583;BME280;36329;48.816;44.624;2023-02-26T03:47:24;101145;;;1.4;100
49583;BME280;36329;48.816;44.624;2023-02-26T03:50:32;101156;;;1.3;100
49583;BME280;36329;48.816;44.624;2023-02-26T03:53:41;101159;;;1.3;100
49583;BME280;36329;48.816;44.624;2023-02-26T03:56:47;101158;;;1.4;100
49583;BME280;36329;48.816;44.624;2023-02-26T03:59:49;101168;;;1.5;100
49583;BME280;36329;48.816;44.624;2023-02-26T04:02:56;101181;;;1.5;100
49583;BME280;36329;48.816;44.624;2023-02-26T04:06:01;101181;;;1.5;100
49583;BME280;36329;48.816;44.624;2023-02-26T04:09:04;101195;;;1.6;100
49583;BME280;36329;48.816;44.624;2023-02-26T04:12:07;101208;;;1.5;100
49583;BME280;36329;48.816;44.624;2023-02-26T04:15:10;101210;;;1.5;100
49583;BME280;36329;48.816;44.624;2023-02-26T04:18:12;101200;;;1.4;100
49583;BME280;36329;48.816;44.624;2023-02-26T04:21:16;101211;;;1.3;100
49583;BME280;36329;48.816;44.624;2023-02-26T04:24:21;101196;;;1.2;100
49583;BME280;36329;48.816;44.624;2023-02-26T04:27:23;101194;;;1.2;100
49583;BME280;36329;48.816;44.624;2023-02-26T04:30:26;101204;;;1.1;100
49583;BME280;36329;48.816;44.624;2023-02-26T04:33:33;101214;;;1;100
49583;BME280;36329;48.816;44.624;2023-02-26T04:36:46;101211;;;1.1;100
49583;BME280;36329;48.816;44.624;2023-02-26T04:39:50;101220;;;1.1;100
49583;BME280;36329;48.816;44.624;2023-02-26T04:42:52;101218;;;1.1;100
49583;BME280;36329;48.816;44.624;2023-02-26T04:45:55;101209;;;1.1;100
49583;BME280;36329;48.816;44.624;2023-02-26T04:48:58;101226;;;1.1;100
49583;BME280;36329;48.816;44.624;2023-02-26T04:52:00;101231;;;1.3;100
49583;BME280;36329;48.816;44.624;2023-02-26T04:55:08;101225;;;1.3;100
49583;BME280;36329;48.816;44.624;2023-02-26T04:58:11;101224;;;1.2;100
49583;BME280;36329;48.816;44.624;2023-02-26T05:01:23;101218;;;1.1;100
49583;BME280;36329;48.816;44.624;2023-02-26T05:04:31;101216;;;1.1;100
49583;BME280;36329;48.816;44.624;2023-02-26T05:07:34;101218;;;1.1;100
49583;BME280;36329;48.816;44.624;2023-02-26T05:10:42;101226;;;1.2;100
49583;BME280;36329;48.816;44.624;2023-02-26T05:13:57;101229;;;1.2;100
49583;BME280;36329;48.816;44.624;2023-02-26T05:17:07;101221;;;1.4;100
49583;BME280;36329;48.816;44.624;2023-02-26T05:20:11;101230;;;1.3;100
49583;BME280;36329;48.816;44.624;2023-02-26T05:23:14;101205;;;1.3;100
49583;BME280;36329;48.816;44.624;2023-02-26T05:26:28;101230;;;1.1;100
49583;BME280;36329;48.816;44.624;2023-02-26T05:29:32;101218;;;1.1;100
49583;BME280;36329;48.816;44.624;2023-02-26T05:32:42;101212;;;1.1;100
49583;BME280;36329;48.816;44.624;2023-02-26T05:35:50;101201;;;1;100
49583;BME280;36329;48.816;44.624;2023-02-26T05:38:52;101198;;;0.9;100
49583;BME280;36329;48.816;44.624;2023-02-26T05:41:56;101176;;;1;100
49583;BME280;36329;48.816;44.624;2023-02-26T05:45:01;101158;;;1.3;100
49583;BME280;36329;48.816;44.624;2023-02-26T05:48:03;101145;;;1.5;100
49583;BME280;36329;48.816;44.624;2023-02-26T05:51:05;101167;;;1.3;100
49583;BME280;36329;48.816;44.624;2023-02-26T05:54:08;101164;;;1.1;100
49583;BME280;36329;48.816;44.624;2023-02-26T05:57:10;101174;;;1.1;100
49583;BME280;36329;48.816;44.624;2023-02-26T06:00:14;101172;;;1;100
49583;BME280;36329;48.816;44.624;2023-02-26T06:03:16;101168;;;1.1;100
49583;BME280;36329;48.816;44.624;2023-02-26T06:06:29;101209;;;1;100
49583;BME280;36329;48.816;44.624;2023-02-26T06:09:32;101184;;;0.9;100
49583;BME280;36329;48.816;44.624;2023-02-26T06:12:36;101183;;;0.9;100
49583;BME280;36329;48.816;44.624;2023-02-26T06:15:38;101193;;;0.9;100
49583;BME280;36329;48.816;44.624;2023-02-26T06:18:47;101178;;;1;100
49583;BME280;36329;48.816;44.624;2023-02-26T06:22:02;101185;;;1.1;100
49583;BME280;36329;48.816;44.624;2023-02-26T06:25:05;101173;;;1.2;100
49583;BME280;36329;48.816;44.624;2023-02-26T06:28:17;101203;;;1.1;100
49583;BME280;36329;48.816;44.624;2023-02-26T06:31:24;101189;;;1.1;100
49583;BME280;36329;48.816;44.624;2023-02-26T06:34:40;101203;;;1.1;100
49583;BME280;36329;48.816;44.624;2023-02-26T06:37:43;101198;;;1;100
49583;BME280;36329;48.816;44.624;2023-02-26T06:40:47;101225;;;0.9;100
49583;BME280;36329;48.816;44.624;2023-02-26T06:44:06;101196;;;0.9;100
49583;BME280;36329;48.816;44.624;2023-02-26T06:47:35;101199;;;0.9;100
49583;BME280;36329;48.816;44.624;2023-02-26T06:50:37;101213;;;1;100
49583;BME280;36329;48.816;44.624;2023-02-26T06:53:43;101190;;;1;100
49583;BME280;36329;48.816;44.624;2023-02-26T06:56:53;101213;;;1;100
49583;BME280;36329;48.816;44.624;2023-02-26T06:59:55;101191;;;1;100
49583;BME280;36329;48.816;44.624;2023-02-26T07:03:04;101221;;;1;100
49583;BME280;36329;48.816;44.624;2023-02-26T07:06:25;101192;;;1;100
49583;BME280;36329;48.816;44.624;2023-02-26T07:09:43;101176;;;1.1;100
49583;BME280;36329;48.816;44.624;2023-02-26T07:13:05;101184;;;1.1;100
49583;BME280;36329;48.816;44.624;2023-02-26T07:16:14;101218;;;1.1;100
49583;BME280;36329;48.816;44.624;2023-02-26T07:19:38;101225;;;1;100
49583;BME280;36329;48.816;44.624;2023-02-26T07:22:50;101211;;;1.1;100
49583;BME280;36329;48.816;44.624;2023-02-26T07:29:42;101200;;;1.2;100
49583;BME280;36329;48.816;44.624;2023-02-26T07:32:46;101212;;;1.2;100
49583;BME280;36329;48.816;44.624;2023-02-26T07:35:50;101223;;;1.2;100
49583;BME280;36329;48.816;44.624;2023-02-26T07:39:00;101213;;;1.2;100
49583;BME280;36329;48.816;44.624;2023-02-26T07:42:30;101199;;;1.2;100
49583;BME280;36329;48.816;44.624;2023-02-26T07:45:39;101196;;;1.2;100
49583;BME280;36329;48.816;44.624;2023-02-26T07:49:00;101193;;;1.2;100
49583;BME280;36329;48.816;44.624;2023-02-26T07:52:10;101205;;;1.3;100
49583;BME280;36329;48.816;44.624;2023-02-26T07:55:26;101209;;;1.3;100
49583;BME280;36329;48.816;44.624;2023-02-26T07:58:39;101202;;;1.3;100
49583;BME280;36329;48.816;44.624;2023-02-26T08:01:43;101201;;;1.3;100
49583;BME280;36329;48.816;44.624;2023-02-26T08:04:52;101207;;;1.4;100
49583;BME280;36329;48.816;44.624;2023-02-26T08:08:13;101189;;;1.4;100
49583;BME280;36329;48.816;44.624;2023-02-26T08:11:17;101185;;;1.4;100
49583;BME280;36329;48.816;44.624;2023-02-26T08:14:21;101218;;;1.5;100
49583;BME280;36329;48.816;44.624;2023-02-26T08:17:34;101209;;;1.4;100
49583;BME280;36329;48.816;44.624;2023-02-26T08:20:43;101223;;;1.4;100
49583;BME280;36329;48.816;44.624;2023-02-26T08:23:54;101209;;;1.5;100
49583;BME280;36329;48.816;44.624;2023-02-26T08:27:07;101201;;;1.5;100
49583;BME280;36329;48.816;44.624;2023-02-26T08:30:18;101199;;;1.5;100
49583;BME280;36329;48.816;44.624;2023-02-26T08:33:36;101192;;;1.4;100
49583;BME280;36329;48.816;44.624;2023-02-26T08:36:40;101208;;;1.4;100
49583;BME280;36329;48.816;44.624;2023-02-26T08:39:43;101213;;;1.5;100
49583;BME280;36329;48.816;44.624;2023-02-26T08:43:02;101211;;;1.6;100
49583;BME280;36329;48.816;44.624;2023-02-26T08:46:09;101212;;;1.8;100
49583;BME280;36329;48.816;44.624;2023-02-26T08:49:12;101222;;;1.8;100
49583;BME280;36329;48.816;44.624;2023-02-26T08:52:23;101213;;;1.8;100
49583;BME280;36329;48.816;44.624;2023-02-26T08:55:38;101221;;;1.8;100
49583;BME280;36329;48.816;44.624;2023-02-26T08:58:59;101216;;;1.8;100
49583;BME280;36329;48.816;44.624;2023-02-26T09:02:08;101199;;;1.9;100
49583;BME280;36329;48.816;44.624;2023-02-26T09:05:11;101210;;;1.9;100
49583;BME280;36329;48.816;44.624;2023-02-26T09:08:20;101204;;;2;100
49583;BME280;36329;48.816;44.624;2023-02-26T09:11:40;101204;;;2.2;100
49583;BME280;36329;48.816;44.624;2023-02-26T09:14:50;101186;;;2.2;100
49583;BME280;36329;48.816;44.624;2023-02-26T09:17:55;101191;;;2.3;100
49583;BME280;36329;48.816;44.624;2023-02-26T09:21:03;101187;;;2.2;100
49583;BME280;36329;48.816;44.624;2023-02-26T09:24:18;101183;;;2.2;100
49583;BME280;36329;48.816;44.624;2023-02-26T09:27:22;101187;;;2.2;100
49583;BME280;36329;48.816;44.624;2023-02-26T09:30:43;101183;;;2.3;100
49583;BME280;36329;48.816;44.624;2023-02-26T09:33:59;101175;;;2.4;100
49583;BME280;36329;48.816;44.624;2023-02-26T09:37:04;101166;;;2.5;100
49583;BME280;36329;48.816;44.624;2023-02-26T09:43:57;101171;;;2.2;100
49583;BME280;36329;48.816;44.624;2023-02-26T09:47:16;101188;;;2.3;100
49583;BME280;36329;48.816;44.624;2023-02-26T09:50:43;101184;;;2.4;100
49583;BME280;36329;48.816;44.624;2023-02-26T09:57:31;101178;;;2.3;100
49583;BME280;36329;48.816;44.624;2023-02-26T10:00:59;101173;;;2.3;100
49583;BME280;36329;48.816;44.624;2023-02-26T10:04:46;101174;;;2.5;100
49583;BME280;36329;48.816;44.624;2023-02-26T10:07:55;101197;;;2.6;100
49583;BME280;36329;48.816;44.624;2023-02-26T10:11:25;101185;;;2.6;100
49583;BME280;36329;48.816;44.624;2023-02-26T10:14:59;101175;;;2.7;100
49583;BME280;36329;48.816;44.624;2023-02-26T10:18:09;101169;;;2.8;100
49583;BME280;36329;48.816;44.624;2023-02-26T10:21:33;101180;;;2.8;100
49583;BME280;36329;48.816;44.624;2023-02-26T10:25:10;101162;;;2.8;100
49583;BME280;36329;48.816;44.624;2023-02-26T10:28:38;101188;;;2.7;100
49583;BME280;36329;48.816;44.624;2023-02-26T10:32:20;101195;;;2.9;100
49583;BME280;36329;48.816;44.624;2023-02-26T10:35:39;101192;;;2.8;100
49583;BME280;36329;48.816;44.624;2023-02-26T10:38:48;101182;;;2.8;100
49583;BME280;36329;48.816;44.624;2023-02-26T10:42:03;101192;;;2.8;100
49583;BME280;36329;48.816;44.624;2023-02-26T10:49:08;101195;;;3;100
49583;BME280;36329;48.816;44.624;2023-02-26T10:52:44;101194;;;3.2;100
49583;BME280;36329;48.816;44.624;2023-02-26T10:56:08;101202;;;3.2;100
49583;BME280;36329;48.816;44.624;2023-02-26T10:59:30;101210;;;3.4;100
49583;BME280;36329;48.816;44.624;2023-02-26T11:02:46;101238;;;3.5;100
49583;BME280;36329;48.816;44.624;2023-02-26T11:06:03;101231;;;3.6;100
49583;BME280;36329;48.816;44.624;2023-02-26T11:09:20;101235;;;3.7;100
49583;BME280;36329;48.816;44.624;2023-02-26T11:12:26;101238;;;4;100
49583;BME280;36329;48.816;44.624;2023-02-26T11:15:35;101243;;;4.2;100
49583;BME280;36329;48.816;44.624;2023-02-26T11:18:48;101241;;;4.2;100
49583;BME280;36329;48.816;44.624;2023-02-26T11:21:53;101243;;;4.2;100
49583;BME280;36329;48.816;44.624;2023-02-26T11:24:56;101237;;;4.2;100
49583;BME280;36329;48.816;44.624;2023-02-26T11:28:25;101258;;;4.2;100
49583;BME280;36329;48.816;44.624;2023-02-26T11:31:46;101249;;;4.3;100
49583;BME280;36329;48.816;44.624;2023-02-26T11:34:53;101260;;;4.3;100
49583;BME280;36329;48.816;44.624;2023-02-26T11:38:01;101260;;;4.4;100
49583;BME280;36329;48.816;44.624;2023-02-26T11:41:13;101258;;;4.3;100
49583;BME280;36329;48.816;44.624;2023-02-26T11:44:18;101252;;;4.3;100
49583;BME280;36329;48.816;44.624;2023-02-26T11:47:25;101264;;;4.2;100
49583;BME280;36329;48.816;44.624;2023-02-26T11:50:40;101249;;;4.1;100
49583;BME280;36329;48.816;44.624;2023-02-26T11:53:54;101258;;;4.2;100
49583;BME280;36329;48.816;44.624;2023-02-26T11:57:15;101249;;;4.1;100
49583;BME280;36329;48.816;44.624;2023-02-26T12:00:48;101266;;;4.2;100
49583;BME280;36329;48.816;44.624;2023-02-26T12:04:08;101256;;;4.1;100
49583;BME280;36329;48.816;44.624;2023-02-26T12:07:25;101261;;;4;100
49583;BME280;36329;48.816;44.624;2023-02-26T12:10:52;101253;;;4.1;100
49583;BME280;36329;48.816;44.624;2023-02-26T12:14:15;101270;;;4.1;100
49583;BME280;36329;48.816;44.624;2023-02-26T12:17:41;101279;;;4.1;100
49583;BME280;36329;48.816;44.624;2023-02-26T12:21:12;101281;;;4;100
49583;BME280;36329;48.816;44.624;2023-02-26T12:24:33;101290;;;4;100
49583;BME280;36329;48.816;44.624;2023-02-26T12:28:08;101298;;;4;100
49583;BME280;36329;48.816;44.624;2023-02-26T12:31:36;101294;;;4;100
49583;BME280;36329;48.816;44.624;2023-02-26T12:35:16;101295;;;4.1;100
49583;BME280;36329;48.816;44.624;2023-02-26T12:38:40;101293;;;4.1;100
49583;BME280;36329;48.816;44.624;2023-02-26T12:42:13;101296;;;4.1;100
49583;BME280;36329;48.816;44.624;2023-02-26T12:46:00;101302;;;4;100
49583;BME280;36329;48.816;44.624;2023-02-26T12:49:47;101304;;;4;100
49583;BME280;36329;48.816;44.624;2023-02-26T12:53:11;101292;;;3.9;100
49583;BME280;36329;48.816;44.624;2023-02-26T12:56:46;101290;;;3.9;100
49583;BME280;36329;48.816;44.624;2023-02-26T13:00:18;101306;;;3.8;100
49583;BME280;36329;48.816;44.624;2023-02-26T13:03:51;101317;;;3.8;100
49583;BME280;36329;48.816;44.624;2023-02-26T13:07:19;101319;;;3.8;100
49583;BME280;36329;48.816;44.624;2023-02-26T13:10:53;101323;;;3.8;100
49583;BME280;36329;48.816;44.624;2023-02-26T13:14:13;101320;;;3.8;100
49583;BME280;36329;48.816;44.624;2023-02-26T13:17:42;101312;;;3.8;100
49583;BME280;36329;48.816;44.624;2023-02-26T13:20:59;101315;;;3.8;100
49583;BME280;36329;48.816;44.624;2023-02-26T13:24:14;101323;;;3.8;100
49583;BME280;36329;48.816;44.624;2023-02-26T13:27:21;101316;;;3.7;100
49583;BME280;36329;48.816;44.624;2023-02-26T13:30:35;101329;;;3.7;100
49583;BME280;36329;48.816;44.624;2023-02-26T13:34:03;101318;;;3.7;100
49583;BME280;36329;48.816;44.624;2023-02-26T13:37:31;101313;;;3.6;100
49583;BME280;36329;48.816;44.624;2023-02-26T13:40:59;101323;;;3.5;100
49583;BME280;36329;48.816;44.624;2023-02-26T13:44:40;101335;;;3.5;100
49583;BME280;36329;48.816;44.624;2023-02-26T13:48:28;101324;;;3.4;100
49583;BME280;36329;48.816;44.624;2023-02-26T13:51:39;101314;;;3.6;100
49583;BME280;36329;48.816;44.624;2023-02-26T13:54:55;101315;;;3.6;100
49583;BME280;36329;48.816;44.624;2023-02-26T13:58:27;101325;;;3.4;100
49583;BME280;36329;48.816;44.624;2023-02-26T14:01:47;101320;;;3.4;100
49583;BME280;36329;48.816;44.624;2023-02-26T14:05:09;101325;;;3.4;100
49583;BME280;36329;48.816;44.624;2023-02-26T14:08:45;101332;;;3.4;100
49583;BME280;36329;48.816;44.624;2023-02-26T14:12:11;101327;;;3.5;100
49583;BME280;36329;48.816;44.624;2023-02-26T14:15:40;101325;;;3.5;100
49583;BME280;36329;48.816;44.624;2023-02-26T14:18:49;101321;;;3.4;100
49583;BME280;36329;48.816;44.624;2023-02-26T14:22:16;101332;;;3.3;100
49583;BME280;36329;48.816;44.624;2023-02-26T14:25:34;101319;;;3.4;100
49583;BME280;36329;48.816;44.624;2023-02-26T14:28:56;101323;;;3.5;100
49583;BME280;36329;48.816;44.624;2023-02-26T14:32:28;101336;;;3.5;100
49583;BME280;36329;48.816;44.624;2023-02-26T14:35:56;101328;;;3.4;100
49583;BME280;36329;48.816;44.624;2023-02-26T14:39:18;101340;;;3.5;100
49583;BME280;36329;48.816;44.624;2023-02-26T14:42:36;101347;;;3.4;100
49583;BME280;36329;48.816;44.624;2023-02-26T14:46:03;101354;;;3.4;100
49583;BME280;36329;48.816;44.624;2023-02-26T14:49:23;101349;;;3.4;100
49583;BME280;36329;48.816;44.624;2023-02-26T14:52:58;101354;;;3.5;100
49583;BME280;36329;48.816;44.624;2023-02-26T14:56:32;101353;;;3.5;100
49583;BME280;36329;48.816;44.624;2023-02-26T15:00:10;101365;;;3.5;100
49583;BME280;36329;48.816;44.624;2023-02-26T15:03:47;101367;;;3.5;100
49583;BME280;36329;48.816;44.624;2023-02-26T15:07:23;101368;;;3.6;100
49583;BME280;36329;48.816;44.624;2023-02-26T15:14:32;101369;;;3.6;100
49583;BME280;36329;48.816;44.624;2023-02-26T15:17:48;101379;;;3.6;100
49583;BME280;36329;48.816;44.624;2023-02-26T15:21:02;101367;;;3.6;100
49583;BME280;36329;48.816;44.624;2023-02-26T15:24:30;101379;;;3.7;100
49583;BME280;36329;48.816;44.624;2023-02-26T15:27:41;101379;;;3.5;100
49583;BME280;36329;48.816;44.624;2023-02-26T15:30:54;101384;;;3.5;100
49583;BME280;36329;48.816;44.624;2023-02-26T15:34:02;101382;;;3.5;100
49583;BME280;36329;48.816;44.624;2023-02-26T15:37:20;101386;;;3.5;100
49583;BME280;36329;48.816;44.624;2023-02-26T15:40:34;101386;;;3.6;100
49583;BME280;36329;48.816;44.624;2023-02-26T15:43:49;101390;;;3.5;100
49583;BME280;36329;48.816;44.624;2023-02-26T15:47:08;101403;;;3.6;100
49583;BME280;36329;48.816;44.624;2023-02-26T15:50:25;101400;;;3.6;100
49583;BME280;36329;48.816;44.624;2023-02-26T15:53:36;101401;;;3.6;100
49583;BME280;36329;48.816;44.624;2023-02-26T15:56:50;101395;;;3.5;100
49583;BME280;36329;48.816;44.624;2023-02-26T16:00:05;101408;;;3.4;100
49583;BME280;36329;48.816;44.624;2023-02-26T16:03:10;101385;;;3.4;100
49583;BME280;36329;48.816;44.624;2023-02-26T16:06:32;101405;;;3.4;100
49583;BME280;36329;48.816;44.624;2023-02-26T16:10:05;101410;;;3.6;100
49583;BME280;36329;48.816;44.624;2023-02-26T16:13:27;101415;;;3.5;100
49583;BME280;36329;48.816;44.624;2023-02-26T16:16:55;101405;;;3.5;100
49583;BME280;36329;48.816;44.624;2023-02-26T16:20:15;101396;;;3.5;100
49583;BME280;36329;48.816;44.624;2023-02-26T16:23:42;101396;;;3.5;100
49583;BME280;36329;48.816;44.624;2023-02-26T16:26:54;101417;;;3.5;100
49583;BME280;36329;48.816;44.624;2023-02-26T16:30:16;101411;;;3.5;100
49583;BME280;36329;48.816;44.624;2023-02-26T16:33:38;101408;;;3.6;100
49583;BME280;36329;48.816;44.624;2023-02-26T16:36:52;101409;;;3.7;100
49583;BME280;36329;48.816;44.624;2023-02-26T16:40:06;101407;;;3.5;100
49583;BME280;36329;48.816;44.624;2023-02-26T16:43:41;101397;;;3.6;100
49583;BME280;36329;48.816;44.624;2023-02-26T16:46:58;101392;;;3.5;100
49583;BME280;36329;48.816;44.624;2023-02-26T16:50:31;101397;;;3.5;100
49583;BME280;36329;48.816;44.624;2023-02-26T16:54:13;101399;;;3.5;100
49583;BME280;36329;48.816;44.624;2023-02-26T16:57:32;101403;;;3.4;100
49583;BME280;36329;48.816;44.624;2023-02-26T17:00:52;101404;;;3.4;100
49583;BME280;36329;48.816;44.624;2023-02-26T17:04:14;101397;;;3.5;100
49583;BME280;36329;48.816;44.624;2023-02-26T17:07:35;101399;;;3.4;100
49583;BME280;36329;48.816;44.624;2023-02-26T17:11:18;101399;;;3.4;100
49583;BME280;36329;48.816;44.624;2023-02-26T17:14:36;101406;;;3.3;100
49583;BME280;36329;48.816;44.624;2023-02-26T17:17:44;101390;;;3.4;100
49583;BME280;36329;48.816;44.624;2023-02-26T17:20:50;101385;;;3.4;100
49583;BME280;36329;48.816;44.624;2023-02-26T17:24:34;101393;;;3.3;100
49583;BME280;36329;48.816;44.624;2023-02-26T17:28:01;101389;;;3.4;100
49583;BME280;36329;48.816;44.624;2023-02-26T17:31:11;101382;;;3.3;100
49583;BME280;36329;48.816;44.624;2023-02-26T17:34:23;101381;;;3.4;100
49583;BME280;36329;48.816;44.624;2023-02-26T17:37:33;101378;;;3.3;100
49583;BME280;36329;48.816;44.624;2023-02-26T17:40:45;101391;;;3.3;100
49583;BME280;36329;48.816;44.624;2023-02-26T17:43:55;101394;;;3.4;100
49583;BME280;36329;48.816;44.624;2023-02-26T17:47:25;101402;;;3.4;100
49583;BME280;36329;48.816;44.624;2023-02-26T17:51:04;101410;;;3.5;100
49583;BME280;36329;48.816;44.624;2023-02-26T17:54:24;101421;;;3.6;100
49583;BME280;36329;48.816;44.624;2023-02-26T17:57:55;101416;;;3.7;100
49583;BME280;36329;48.816;44.624;2023-02-26T18:01:12;101441;;;3.8;100
49583;BME280;36329;48.816;44.624;2023-02-26T18:04:16;101428;;;3.9;100
49583;BME280;36329;48.816;44.624;2023-02-26T18:07:19;101421;;;3.8;100
49583;BME280;36329;48.816;44.624;2023-02-26T18:10:30;101414;;;3.6;100
49583;BME280;36329;48.816;44.624;2023-02-26T18:13:39;101412;;;3.5;100
49583;BME280;36329;48.816;44.624;2023-02-26T18:20:25;101409;;;3.6;100
49583;BME280;36329;48.816;44.624;2023-02-26T18:23:42;101408;;;3.8;100
49583;BME280;36329;48.816;44.624;2023-02-26T18:26:55;101413;;;3.8;100
49583;BME280;36329;48.816;44.624;2023-02-26T18:30:22;101413;;;3.9;100
49583;BME280;36329;48.816;44.624;2023-02-26T18:33:26;101429;;;4;100
49583;BME280;36329;48.816;44.624;2023-02-26T18:36:32;101409;;;4;100
49583;BME280;36329;48.816;44.624;2023-02-26T18:39:36;101411;;;3.9;100
49583;BME280;36329;48.816;44.624;2023-02-26T18:42:47;101418;;;3.8;100
49583;BME280;36329;48.816;44.624;2023-02-26T18:45:51;101409;;;3.8;100
49583;BME280;36329;48.816;44.624;2023-02-26T18:48:52;101413;;;3.9;100